Main page
METAR-TAF:

METAR-TAF

Airports :

Pemba Airport

Pemba, Mozambique

latitude: 12-59S, longitude: 040-32E, elevation: 101 m

Current weather observation

The report was made 40 minutes ago, at 05:00 UTC
Wind 5 kt from the Northwest
Temperature 25°C
Humidity 89%
Pressure 1016 hPa
Visibility 10 km or more
Scattered clouds at a height of 2000 ft

METAR: FQPB 010500Z 31005KT 9999 SCT020 25/23 Q1016

Time: 07:40 (05:40 UTC)

Forecast

The report was made 1 hour and 40 minutes ago, at 04:00 UTC
Forecast valid from 01 at 06 UTC to 02 at 06 UTC
Wind 8 kt from the East
Visibility 10 km or more
Few clouds at a height of 2000 ft
Becoming
from 01 at 08 UTC to 01 at 12 UTC
Wind 10 kt from the East/Northeast with gusts up to 20 kt

TAF: FQPB 010400Z 0106/0206 09008KT 9999 FEW020 TX30/0113Z TN24/0202Z BECMG 0108/0112 06010G20KT

Weather observations and forecasts of more than 4000 airports (METAR and TAF reports).

The available stations are represented by yellow and red dots on the map.

Hover mouse over dot to see the name of the station.

Then click to see weather observations and forecasts.

To change the map : click on the green buttons with a black cross to zoom in, on the green button with a dash to zoom out, or on the green arrows for adjacent maps.


METAR-TAF: